createdAt,value
2019-04-11T00:00:57.712Z,9.90
2019-04-11T00:03:25.028Z,9.80
2019-04-11T00:05:51.592Z,9.90
2019-04-11T00:08:18.139Z,9.80
2019-04-11T00:10:45.049Z,9.80
2019-04-11T00:13:19.770Z,9.80
2019-04-11T00:15:40.450Z,9.80
2019-04-11T00:18:06.809Z,9.80
2019-04-11T00:20:33.867Z,9.80
2019-04-11T00:23:00.238Z,9.80
2019-04-11T00:25:27.478Z,9.80
2019-04-11T00:27:54.146Z,9.80
2019-04-11T00:30:20.814Z,9.70
2019-04-11T00:32:47.084Z,9.80
2019-04-11T00:35:13.455Z,9.80
2019-04-11T00:37:39.698Z,9.80
2019-04-11T00:40:06.577Z,9.80
2019-04-11T00:42:32.882Z,9.80
2019-04-11T00:44:59.199Z,9.70
2019-04-11T00:47:25.391Z,9.70
2019-04-11T00:49:51.630Z,9.70
2019-04-11T00:52:17.880Z,9.70
2019-04-11T00:54:44.117Z,9.60
2019-04-11T00:57:10.570Z,9.60
2019-04-11T00:59:37.011Z,9.50
2019-04-11T01:02:05.141Z,9.50
2019-04-11T01:04:31.518Z,9.40
2019-04-11T01:06:58.594Z,9.40
2019-04-11T01:09:24.874Z,9.40
2019-04-11T01:11:52.169Z,9.40
2019-04-11T01:14:18.494Z,9.40
2019-04-11T01:16:46.595Z,9.30
2019-04-11T01:19:12.863Z,9.30
2019-04-11T01:21:40.316Z,9.20
2019-04-11T01:24:07.187Z,9.20
2019-04-11T01:26:33.514Z,9.20
2019-04-11T01:29:00.921Z,9.20
2019-04-11T01:31:29.502Z,9.10
2019-04-11T01:33:56.086Z,9.10
2019-04-11T01:36:22.744Z,9.10
2019-04-11T01:38:50.936Z,9.00
2019-04-11T01:41:18.177Z,9.00
2019-04-11T01:43:53.421Z,9.00
2019-04-11T01:46:14.048Z,8.90
2019-04-11T01:48:45.906Z,8.90
2019-04-11T01:51:12.360Z,8.80
2019-04-11T01:53:40.561Z,8.80
2019-04-11T01:56:07.231Z,8.80
2019-04-11T01:58:33.621Z,8.80
2019-04-11T02:01:08.377Z,8.70
2019-04-11T02:03:51.833Z,8.70
2019-04-11T02:06:18.182Z,8.70
2019-04-11T02:08:44.435Z,8.70
2019-04-11T02:11:10.770Z,8.70
2019-04-11T02:13:37.008Z,8.60
2019-04-11T02:16:03.406Z,8.50
2019-04-11T02:18:29.746Z,8.50
2019-04-11T02:20:55.961Z,8.40
2019-04-11T02:23:26.999Z,8.40
2019-04-11T02:25:57.856Z,8.30
2019-04-11T02:28:24.433Z,8.30
2019-04-11T02:30:54.147Z,8.20
2019-04-11T02:33:21.809Z,8.10
2019-04-11T02:35:49.492Z,8.10
2019-04-11T02:38:16.503Z,8.00
2019-04-11T02:40:45.290Z,8.00
2019-04-11T02:43:13.308Z,7.90
2019-04-11T02:45:54.515Z,7.90
2019-04-11T02:48:11.483Z,7.90
2019-04-11T02:50:38.796Z,7.90
2019-04-11T02:53:07.226Z,7.80
2019-04-11T02:55:35.813Z,7.80
2019-04-11T02:58:03.978Z,7.80
2019-04-11T03:00:32.738Z,7.70
2019-04-11T03:02:59.880Z,7.70
2019-04-11T03:05:28.876Z,7.70
2019-04-11T03:07:57.978Z,7.60
2019-04-11T03:10:26.980Z,7.70
2019-04-11T03:12:54.600Z,7.70
2019-04-11T03:15:56.834Z,7.60
2019-04-11T03:18:12.332Z,7.60
2019-04-11T03:20:47.349Z,7.60
2019-04-11T03:23:10.143Z,7.60
2019-04-11T03:25:36.403Z,7.50
2019-04-11T03:28:03.201Z,7.50
2019-04-11T03:30:49.415Z,7.50
2019-04-11T03:33:57.865Z,7.50
2019-04-11T03:36:21.268Z,7.50
2019-04-11T03:38:19.480Z,7.50
2019-04-11T03:40:44.021Z,7.40
2019-04-11T03:43:06.232Z,7.50
2019-04-11T03:45:43.577Z,7.50
2019-04-11T03:48:06.166Z,7.50
2019-04-11T03:50:23.147Z,7.50
2019-04-11T03:52:47.067Z,7.50
2019-04-11T03:55:15.724Z,7.50
2019-04-11T03:57:43.104Z,7.50
2019-04-11T04:00:13.079Z,7.50
2019-04-11T04:02:41.161Z,7.40
2019-04-11T04:05:10.474Z,7.40
2019-04-11T04:07:38.121Z,7.30
2019-04-11T04:10:09.193Z,7.30
2019-04-11T04:12:35.721Z,7.20
2019-04-11T04:15:35.882Z,7.10
2019-04-11T04:18:10.774Z,7.10
2019-04-11T04:20:41.826Z,6.90
2019-04-11T04:23:12.405Z,6.90
2019-04-11T04:25:42.780Z,6.90
2019-04-11T04:28:10.109Z,6.90
2019-04-11T04:30:38.425Z,6.80
2019-04-11T04:33:05.088Z,6.90
2019-04-11T04:35:33.748Z,6.90
2019-04-11T04:38:03.049Z,6.90
2019-04-11T04:40:50.037Z,6.90
2019-04-11T04:43:01.279Z,6.90
2019-04-11T04:45:30.013Z,6.80
2019-04-11T04:48:04.550Z,6.80
2019-04-11T04:50:28.703Z,6.80
2019-04-11T04:52:56.512Z,6.80
2019-04-11T04:55:25.746Z,6.90
2019-04-11T04:57:53.306Z,6.90
2019-04-11T05:00:20.779Z,6.90
2019-04-11T05:02:48.338Z,6.90
2019-04-11T05:05:14.634Z,6.90
2019-04-11T05:07:44.074Z,6.80
2019-04-11T05:10:11.123Z,7.00
2019-04-11T05:12:38.811Z,7.20
2019-04-11T05:15:07.902Z,7.30
2019-04-11T05:17:34.631Z,7.30
2019-04-11T05:20:01.144Z,7.30
2019-04-11T05:22:27.416Z,7.20
2019-04-11T05:24:53.960Z,7.10
2019-04-11T05:27:22.916Z,7.00
2019-04-11T05:29:49.543Z,7.00
2019-04-11T05:32:15.766Z,7.00
2019-04-11T05:34:42.040Z,6.90
2019-04-11T05:37:09.022Z,6.90
2019-04-11T05:39:35.914Z,6.90
2019-04-11T05:42:03.162Z,6.90
2019-04-11T05:44:30.575Z,6.80
2019-04-11T05:47:00.450Z,6.80
2019-04-11T05:49:36.763Z,6.80
2019-04-11T05:52:06.116Z,6.80
2019-04-11T05:54:40.523Z,6.70
2019-04-11T05:57:05.491Z,6.70
2019-04-11T05:59:32.725Z,6.80
2019-04-11T06:02:10.964Z,6.70
2019-04-11T06:04:42.760Z,6.70
2019-04-11T06:07:11.919Z,6.80
2019-04-11T06:09:41.682Z,6.80
2019-04-11T06:12:09.885Z,6.80
2019-04-11T06:14:38.054Z,6.80
2019-04-11T06:17:07.292Z,6.80
2019-04-11T06:19:53.790Z,6.80
2019-04-11T06:22:21.291Z,6.80
2019-04-11T06:24:50.174Z,6.90
2019-04-11T06:27:18.462Z,6.90
2019-04-11T06:29:47.313Z,6.90
2019-04-11T06:32:21.673Z,6.90
2019-04-11T06:34:55.627Z,7.00
2019-04-11T06:37:36.153Z,7.00
2019-04-11T06:40:07.647Z,7.10
2019-04-11T06:42:35.777Z,7.10
2019-04-11T06:45:21.818Z,7.10
2019-04-11T06:47:50.020Z,7.10
2019-04-11T06:50:20.893Z,7.10
2019-04-11T06:52:47.186Z,7.00
2019-04-11T06:55:15.539Z,7.00
2019-04-11T06:57:43.688Z,6.90
2019-04-11T07:00:12.615Z,7.00
2019-04-11T07:02:41.096Z,7.00
2019-04-11T07:05:10.753Z,6.90
2019-04-11T07:07:39.392Z,6.90
2019-04-11T07:10:06.453Z,6.90
2019-04-11T07:12:38.597Z,6.90
2019-04-11T07:15:29.358Z,6.90
2019-04-11T07:18:14.190Z,6.90
2019-04-11T07:20:45.742Z,6.80
2019-04-11T07:23:32.971Z,6.80
2019-04-11T07:26:08.023Z,6.80
2019-04-11T07:28:41.984Z,6.80
2019-04-11T07:31:21.527Z,6.70
2019-04-11T07:34:06.540Z,6.70
2019-04-11T07:36:53.498Z,6.70
2019-04-11T07:39:24.827Z,6.70
2019-04-11T07:41:52.987Z,6.70
2019-04-11T07:44:30.983Z,6.70
2019-04-11T07:47:13.692Z,6.80
2019-04-11T07:49:37.146Z,6.80
2019-04-11T07:52:11.918Z,6.70
2019-04-11T07:54:39.000Z,6.70
2019-04-11T07:57:08.398Z,6.70
2019-04-11T07:59:53.395Z,6.70
2019-04-11T08:02:38.299Z,6.70
2019-04-11T08:05:13.602Z,6.60
2019-04-11T08:07:51.431Z,6.60
2019-04-11T08:10:35.191Z,6.60
2019-04-11T08:13:06.497Z,6.60
2019-04-11T08:15:48.073Z,6.60
2019-04-11T08:18:16.614Z,6.60
2019-04-11T08:21:01.748Z,6.70
2019-04-11T08:23:27.988Z,6.60
2019-04-11T08:26:02.082Z,6.70
2019-04-11T08:28:28.956Z,6.70
2019-04-11T08:31:03.556Z,6.70
2019-04-11T08:33:30.948Z,6.70
2019-04-11T08:36:15.842Z,6.70
2019-04-11T08:38:42.636Z,6.80
2019-04-11T08:41:29.009Z,6.90
2019-04-11T08:43:55.325Z,7.00
2019-04-11T08:46:35.678Z,7.10
2019-04-11T08:49:09.840Z,7.30
2019-04-11T08:51:36.243Z,7.40
2019-04-11T08:54:09.114Z,7.50
2019-04-11T08:56:37.389Z,7.70
2019-04-11T08:59:13.471Z,7.80
2019-04-11T09:01:40.310Z,7.80
2019-04-11T09:04:26.073Z,7.90
2019-04-11T09:06:54.704Z,8.00
2019-04-11T09:09:31.786Z,8.10
2019-04-11T09:12:00.483Z,8.30
2019-04-11T09:14:44.421Z,8.50
2019-04-11T09:17:12.830Z,8.60
2019-04-11T09:19:53.223Z,8.80
2019-04-11T09:22:33.384Z,8.80
2019-04-11T09:25:10.962Z,8.80
2019-04-11T09:27:44.934Z,8.80
2019-04-11T09:30:32.636Z,9.00
2019-04-11T09:33:00.977Z,9.00
2019-04-11T09:35:38.061Z,9.10
2019-04-11T09:38:06.446Z,9.20
2019-04-11T09:40:50.119Z,9.30
2019-04-11T09:43:28.221Z,9.40
2019-04-11T09:45:59.813Z,9.50
2019-04-11T09:48:37.818Z,9.50
2019-04-11T09:51:15.632Z,9.60
2019-04-11T09:53:56.249Z,9.70
2019-04-11T09:56:39.701Z,9.80
2019-04-11T09:59:08.713Z,9.90
2019-04-11T10:01:56.053Z,10.00
2019-04-11T10:04:23.943Z,10.00
2019-04-11T10:07:11.130Z,10.00
2019-04-11T10:09:56.867Z,10.00
2019-04-11T10:12:40.620Z,10.10
2019-04-11T10:15:09.352Z,10.10
2019-04-11T10:17:40.624Z,10.10
2019-04-11T10:20:10.615Z,10.30
2019-04-11T10:22:56.366Z,10.60
2019-04-11T10:25:25.376Z,10.80
2019-04-11T10:28:11.194Z,11.00
2019-04-11T10:30:56.237Z,11.00
2019-04-11T10:33:30.983Z,11.20
2019-04-11T10:36:15.952Z,11.40
2019-04-11T10:38:42.190Z,11.50
2019-04-11T10:41:10.440Z,11.80
2019-04-11T10:43:36.789Z,12.00
2019-04-11T10:46:21.619Z,12.20
2019-04-11T10:48:52.879Z,12.40
2019-04-11T10:51:38.196Z,12.40
2019-04-11T10:54:07.389Z,12.40
2019-04-11T10:56:35.967Z,12.50
2019-04-11T10:59:02.517Z,12.50
2019-04-11T11:01:48.404Z,12.50
2019-04-11T11:04:17.974Z,12.50
2019-04-11T11:06:46.598Z,12.40
2019-04-11T11:09:32.300Z,12.50
2019-04-11T11:12:03.345Z,12.50
2019-04-11T11:14:46.993Z,12.50
2019-04-11T11:17:28.883Z,12.50
2019-04-11T11:20:11.918Z,12.60
2019-04-11T11:22:48.640Z,12.80
2019-04-11T11:25:18.144Z,12.90
2019-04-11T11:27:47.968Z,12.60
2019-04-11T11:30:32.761Z,12.60
2019-04-11T11:33:00.074Z,12.60
2019-04-11T11:35:32.334Z,12.70
2019-04-11T11:37:57.807Z,12.60
2019-04-11T11:40:39.193Z,12.50
2019-04-11T11:43:08.676Z,12.50
2019-04-11T11:45:37.412Z,12.40
2019-04-11T11:48:11.625Z,12.60
2019-04-11T11:50:34.905Z,12.70
2019-04-11T11:53:19.485Z,12.50
2019-04-11T11:55:47.364Z,12.40
2019-04-11T11:58:42.359Z,12.50
2019-04-11T12:01:09.427Z,12.60
2019-04-11T12:03:40.314Z,12.50
2019-04-11T12:06:07.655Z,12.50
2019-04-11T12:08:54.061Z,12.50
2019-04-11T12:11:21.989Z,12.60
2019-04-11T12:14:07.629Z,12.50
2019-04-11T12:16:42.474Z,12.40
2019-04-11T12:19:29.033Z,12.40
2019-04-11T12:21:58.308Z,12.50
2019-04-11T12:24:38.687Z,12.40
2019-04-11T12:27:16.413Z,12.50
2019-04-11T12:29:49.271Z,12.50
2019-04-11T12:32:34.746Z,12.40
2019-04-11T12:35:04.097Z,12.30
2019-04-11T12:37:35.857Z,12.30
2019-04-11T12:40:09.561Z,12.10
2019-04-11T12:42:37.475Z,12.10
2019-04-11T12:45:14.182Z,12.00
2019-04-11T12:47:41.229Z,12.00
2019-04-11T12:50:10.663Z,11.90
2019-04-11T12:52:38.948Z,11.90
2019-04-11T12:55:08.264Z,11.90
2019-04-11T12:57:53.779Z,11.90
2019-04-11T13:00:33.660Z,11.90
2019-04-11T13:03:07.825Z,11.80
2019-04-11T13:05:44.703Z,11.70
2019-04-11T13:08:29.420Z,11.70
2019-04-11T13:10:55.659Z,11.70
2019-04-11T13:13:23.806Z,11.60
2019-04-11T13:15:55.068Z,11.60
2019-04-11T13:18:26.152Z,11.60
2019-04-11T13:21:10.930Z,11.60
2019-04-11T13:23:47.983Z,11.70
2019-04-11T13:26:32.655Z,11.70
2019-04-11T13:29:17.368Z,11.70
2019-04-11T13:31:54.425Z,11.70
2019-04-11T13:34:28.908Z,11.70
2019-04-11T13:37:14.107Z,11.80
2019-04-11T13:39:40.369Z,11.80
2019-04-11T13:42:11.145Z,11.80
2019-04-11T13:44:46.106Z,11.80
2019-04-11T13:47:14.265Z,11.90
2019-04-11T13:49:42.506Z,11.90
2019-04-11T13:52:16.411Z,11.80
2019-04-11T13:55:03.363Z,11.70
2019-04-11T13:57:40.620Z,11.70
2019-04-11T14:00:27.001Z,11.70
2019-04-11T14:03:07.256Z,11.70
2019-04-11T14:05:42.953Z,11.70
2019-04-11T14:08:11.181Z,11.70
2019-04-11T14:10:38.399Z,11.70
2019-04-11T14:13:06.535Z,11.70
2019-04-11T14:15:36.478Z,11.70
2019-04-11T14:18:04.924Z,11.70
2019-04-11T14:20:32.975Z,11.60
2019-04-11T14:23:04.509Z,11.60
2019-04-11T14:25:50.137Z,11.60
2019-04-11T14:28:21.072Z,11.70
2019-04-11T14:30:52.227Z,11.60
2019-04-11T14:33:17.352Z,11.50
2019-04-11T14:35:51.212Z,11.40
2019-04-11T14:38:19.379Z,11.30
2019-04-11T14:41:01.851Z,11.30
2019-04-11T14:43:27.155Z,11.30
2019-04-11T14:45:55.297Z,11.30
2019-04-11T14:48:42.034Z,11.30
2019-04-11T14:51:16.661Z,11.20
2019-04-11T14:53:47.185Z,11.20
2019-04-11T14:56:27.292Z,11.20
2019-04-11T14:59:13.496Z,11.20
2019-04-11T15:01:43.941Z,11.20
2019-04-11T15:04:13.534Z,11.10
2019-04-11T15:06:54.073Z,11.10
2019-04-11T15:09:38.837Z,11.10
2019-04-11T15:12:07.214Z,11.20
2019-04-11T15:14:41.034Z,11.30
2019-04-11T15:17:11.905Z,11.40
2019-04-11T15:19:40.048Z,11.40
2019-04-11T15:22:11.072Z,11.40
2019-04-11T15:24:39.223Z,11.40
2019-04-11T15:27:23.853Z,11.50
2019-04-11T15:29:50.143Z,11.50
2019-04-11T15:32:23.940Z,11.40
2019-04-11T15:34:52.815Z,11.40
2019-04-11T15:37:37.143Z,11.30
2019-04-11T15:40:07.677Z,11.20
2019-04-11T15:42:37.790Z,11.10
2019-04-11T15:45:06.603Z,11.10
2019-04-11T15:47:32.843Z,11.10
2019-04-11T15:50:17.708Z,11.10
2019-04-11T15:52:45.835Z,11.10
2019-04-11T15:55:14.577Z,11.10
2019-04-11T15:57:43.036Z,11.00
2019-04-11T16:00:16.081Z,10.90
2019-04-11T16:02:53.575Z,10.90
2019-04-11T16:05:34.664Z,11.00
2019-04-11T16:08:20.911Z,10.90
2019-04-11T16:11:05.729Z,10.90
2019-04-11T16:13:36.536Z,10.80
2019-04-11T16:16:11.882Z,10.80
2019-04-11T16:18:40.373Z,10.80
2019-04-11T16:21:24.268Z,10.80
2019-04-11T16:24:22.458Z,10.80
2019-04-11T16:26:50.479Z,10.80
2019-04-11T16:29:27.556Z,10.70
2019-04-11T16:31:55.761Z,10.70
2019-04-11T16:34:47.683Z,10.70
2019-04-11T16:37:04.303Z,10.60
2019-04-11T16:39:44.698Z,10.60
2019-04-11T16:42:11.072Z,10.60
2019-04-11T16:44:39.215Z,10.50
2019-04-11T16:47:25.689Z,10.60
2019-04-11T16:49:52.373Z,10.60
2019-04-11T16:52:18.771Z,10.60
2019-04-11T16:55:59.693Z,10.60
2019-04-11T16:58:26.033Z,10.70
2019-04-11T17:00:53.235Z,10.70
2019-04-11T17:03:19.683Z,10.60
2019-04-11T17:05:50.476Z,10.60
2019-04-11T17:08:18.741Z,10.60
2019-04-11T17:11:04.906Z,10.60
2019-04-11T17:13:32.574Z,10.50
2019-04-11T17:16:00.611Z,10.50
2019-04-11T17:18:26.963Z,10.40
2019-04-11T17:20:53.199Z,10.40
2019-04-11T17:23:19.429Z,10.40
2019-04-11T17:25:48.116Z,10.30
2019-04-11T17:28:14.001Z,10.30
2019-04-11T17:30:40.240Z,10.20
2019-04-11T17:33:06.534Z,10.20
2019-04-11T17:35:32.889Z,10.20
2019-04-11T17:38:01.106Z,10.30
2019-04-11T17:40:27.272Z,10.20
2019-04-11T17:42:53.496Z,10.20
2019-04-11T17:45:19.745Z,10.10
2019-04-11T17:47:45.979Z,10.10
2019-04-11T17:50:12.807Z,10.20
2019-04-11T17:52:39.058Z,10.20
2019-04-11T17:55:05.508Z,10.10
2019-04-11T17:57:31.734Z,10.10
2019-04-11T17:59:59.219Z,10.10
2019-04-11T18:02:26.001Z,10.10
2019-04-11T18:04:52.260Z,10.10
2019-04-11T18:07:18.471Z,10.00
2019-04-11T18:09:44.847Z,10.00
2019-04-11T18:12:11.279Z,10.00
2019-04-11T18:14:37.514Z,10.00
2019-04-11T18:17:04.781Z,9.90
2019-04-11T18:19:31.170Z,9.90
2019-04-11T18:22:07.462Z,9.90
2019-04-11T18:24:27.248Z,9.80
2019-04-11T18:26:54.051Z,9.80
2019-04-11T18:29:22.936Z,9.70
2019-04-11T18:31:49.349Z,9.70
2019-04-11T18:34:15.719Z,9.60
2019-04-11T18:36:42.409Z,9.60
2019-04-11T18:39:09.648Z,9.60
2019-04-11T18:41:35.936Z,9.50
2019-04-11T18:44:02.591Z,9.50
2019-04-11T18:46:29.248Z,9.50
2019-04-11T18:48:55.686Z,9.40
2019-04-11T18:51:23.205Z,9.40
2019-04-11T18:53:50.561Z,9.30
2019-04-11T18:56:17.690Z,9.30
2019-04-11T18:58:44.554Z,9.20
2019-04-11T19:01:11.894Z,9.20
2019-04-11T19:03:41.156Z,9.10
2019-04-11T19:06:07.483Z,9.10
2019-04-11T19:08:34.503Z,9.10
2019-04-11T19:11:01.758Z,9.10
2019-04-11T19:13:28.990Z,9.00
2019-04-11T19:15:56.154Z,8.90
2019-04-11T19:18:23.552Z,8.90
2019-04-11T19:20:50.942Z,8.90
2019-04-11T19:23:18.766Z,8.90
2019-04-11T19:25:46.368Z,8.90
2019-04-11T19:28:13.876Z,8.90
2019-04-11T19:30:42.502Z,8.90
2019-04-11T19:33:10.411Z,8.90
2019-04-11T19:35:41.370Z,8.80
2019-04-11T19:38:12.014Z,8.70
2019-04-11T19:40:39.470Z,8.70
2019-04-11T19:43:07.277Z,8.60
2019-04-11T19:45:35.282Z,8.60
2019-04-11T19:48:02.748Z,8.60
2019-04-11T19:50:32.194Z,8.60
2019-04-11T19:53:02.644Z,8.60
2019-04-11T19:55:46.571Z,8.60
2019-04-11T19:58:15.002Z,8.60
2019-04-11T20:00:42.851Z,8.50
2019-04-11T20:03:10.708Z,8.50
2019-04-11T20:05:38.358Z,8.50
2019-04-11T20:08:06.307Z,8.40
2019-04-11T20:10:33.931Z,8.40
2019-04-11T20:13:02.012Z,8.40
2019-04-11T20:15:37.040Z,8.30
2019-04-11T20:17:58.982Z,8.30
2019-04-11T20:20:26.023Z,8.30
2019-04-11T20:22:59.014Z,8.30
2019-04-11T20:25:21.914Z,8.20
2019-04-11T20:27:50.778Z,8.20
2019-04-11T20:30:17.693Z,8.10
2019-04-11T20:32:44.030Z,8.10
2019-04-11T20:35:10.878Z,8.10
2019-04-11T20:37:39.348Z,8.10
2019-04-11T20:40:05.601Z,8.10
2019-04-11T20:42:31.909Z,8.10
2019-04-11T20:44:59.080Z,8.10
2019-04-11T20:47:25.515Z,8.10
2019-04-11T20:49:51.875Z,8.10
2019-04-11T20:52:18.211Z,8.10
2019-04-11T20:54:45.341Z,8.20
2019-04-11T20:57:12.669Z,8.10
2019-04-11T20:59:42.299Z,8.10
2019-04-11T21:02:07.391Z,8.10
2019-04-11T21:04:33.649Z,8.00
2019-04-11T21:07:02.111Z,8.00
2019-04-11T21:09:28.043Z,8.00
2019-04-11T21:11:54.280Z,8.10
2019-04-11T21:14:20.508Z,8.00
2019-04-11T21:16:46.765Z,8.00
2019-04-11T21:19:13.115Z,7.90
2019-04-11T21:21:39.344Z,7.90
2019-04-11T21:24:05.587Z,7.90
2019-04-11T21:26:31.838Z,7.90
2019-04-11T21:28:58.970Z,7.90
2019-04-11T21:31:25.730Z,7.80
2019-04-11T21:33:51.987Z,7.80
2019-04-11T21:36:18.221Z,7.80
2019-04-11T21:38:44.618Z,7.80
2019-04-11T21:41:10.801Z,7.80
2019-04-11T21:43:37.027Z,7.70
2019-04-11T21:46:04.105Z,7.70
2019-04-11T21:48:31.402Z,7.70
2019-04-11T21:50:57.669Z,7.70
2019-04-11T21:53:35.810Z,7.70
2019-04-11T21:55:52.047Z,7.70
2019-04-11T21:58:20.133Z,7.70
2019-04-11T22:00:54.430Z,7.70
2019-04-11T22:03:23.988Z,7.70
2019-04-11T22:05:49.059Z,7.80
2019-04-11T22:08:15.431Z,7.70
2019-04-11T22:10:42.065Z,7.70
2019-04-11T22:13:10.146Z,7.60
2019-04-11T22:15:36.781Z,7.60
2019-04-11T22:18:03.131Z,7.60
2019-04-11T22:20:29.360Z,7.60
2019-04-11T22:22:55.595Z,7.60
2019-04-11T22:25:21.855Z,7.60
2019-04-11T22:27:53.897Z,7.60
2019-04-11T22:30:20.123Z,7.50
2019-04-11T22:32:48.252Z,7.50
2019-04-11T22:35:14.477Z,7.50
2019-04-11T22:37:40.717Z,7.50
2019-04-11T22:40:07.440Z,7.50
2019-04-11T22:42:33.719Z,7.50
2019-04-11T22:44:59.948Z,7.60
2019-04-11T22:47:26.196Z,7.50
2019-04-11T22:49:52.435Z,7.50
2019-04-11T22:52:18.660Z,7.50
2019-04-11T22:54:44.878Z,7.50
2019-04-11T22:57:12.144Z,7.50
2019-04-11T22:59:43.974Z,7.50
2019-04-11T23:02:16.888Z,7.40
2019-04-11T23:04:40.969Z,7.40
2019-04-11T23:07:07.331Z,7.40
2019-04-11T23:09:33.545Z,7.40
2019-04-11T23:11:59.789Z,7.40
2019-04-11T23:14:26.038Z,7.40
2019-04-11T23:16:52.295Z,7.40
2019-04-11T23:19:18.514Z,7.30
2019-04-11T23:21:44.741Z,7.30
2019-04-11T23:24:12.153Z,7.30
2019-04-11T23:26:38.709Z,7.30
2019-04-11T23:29:05.220Z,7.30
2019-04-11T23:31:31.469Z,7.30
2019-04-11T23:33:57.735Z,7.30
2019-04-11T23:36:27.807Z,7.30
2019-04-11T23:38:54.026Z,7.30
2019-04-11T23:41:20.585Z,7.30
2019-04-11T23:43:49.765Z,7.30
2019-04-11T23:46:15.218Z,7.30
2019-04-11T23:48:41.823Z,7.30
2019-04-11T23:51:09.669Z,7.40
2019-04-11T23:53:35.887Z,7.30
2019-04-11T23:56:02.230Z,7.30
2019-04-11T23:58:31.828Z,7.30
